Yukuhashi, Japan
Current Conditions -  °F | °C
As of 7:00 PM on Thursday 23 Oct 2014 (Local Time) from RJFR Reporting Station
Few Clouds Few Clouds  
Wind Chill: 63°   Ceiling: Unl
Heat Index: 63°   Visibility: 6mi
Dew Point: 52°   Wind: 10mph
Humidity: 68%   Direction: 360°N
Pressure: 30.06"   Gusts: NA
Location:  33.73°N, 130.97°E
Report Text: RJFR 231000Z 36009KT 9999 FEW040 17/11 Q1018
Loading
Personal Weather Stations






























Interactive Weather Map
Tropical Storm Tracking
New forecast layout! Learn more

10-Day Weather Forecast

Advertisements
Track Severe Weather on mobile